sensor_id;sensor_type;location;lat;lon;timestamp;P1;durP1;ratioP1;P2;durP2;ratioP2
1537;SDS011;12022;52.266;10.522;2022-08-16T00:00:09;3.33;;;3.33;;
1537;SDS011;12022;52.266;10.522;2022-08-16T00:02:48;3.70;;;3.70;;
1537;SDS011;12022;52.266;10.522;2022-08-16T00:05:17;3.97;;;3.97;;
1537;SDS011;12022;52.266;10.522;2022-08-16T00:07:45;4.67;;;4.67;;
1537;SDS011;12022;52.266;10.522;2022-08-16T00:10:13;4.13;;;4.13;;
1537;SDS011;12022;52.266;10.522;2022-08-16T00:12:46;4.00;;;4.00;;
1537;SDS011;12022;52.266;10.522;2022-08-16T00:15:21;5.47;;;5.37;;
1537;SDS011;12022;52.266;10.522;2022-08-16T00:18:17;3.40;;;3.40;;
1537;SDS011;12022;52.266;10.522;2022-08-16T00:20:55;3.57;;;3.57;;
1537;SDS011;12022;52.266;10.522;2022-08-16T00:23:22;7.10;;;7.00;;
1537;SDS011;12022;52.266;10.522;2022-08-16T00:26:00;3.47;;;3.47;;
1537;SDS011;12022;52.266;10.522;2022-08-16T00:28:47;4.30;;;4.30;;
1537;SDS011;12022;52.266;10.522;2022-08-16T00:31:20;4.70;;;4.60;;
1537;SDS011;12022;52.266;10.522;2022-08-16T00:33:50;4.60;;;4.57;;
1537;SDS011;12022;52.266;10.522;2022-08-16T00:36:18;4.73;;;4.63;;
1537;SDS011;12022;52.266;10.522;2022-08-16T00:38:45;3.87;;;3.87;;
1537;SDS011;12022;52.266;10.522;2022-08-16T00:41:13;4.70;;;4.60;;
1537;SDS011;12022;52.266;10.522;2022-08-16T00:43:42;5.20;;;5.10;;
1537;SDS011;12022;52.266;10.522;2022-08-16T00:46:11;3.90;;;3.90;;
1537;SDS011;12022;52.266;10.522;2022-08-16T00:49:02;4.40;;;4.40;;
1537;SDS011;12022;52.266;10.522;2022-08-16T00:51:31;3.00;;;3.00;;
1537;SDS011;12022;52.266;10.522;2022-08-16T00:53:58;5.73;;;5.63;;
1537;SDS011;12022;52.266;10.522;2022-08-16T00:56:28;3.30;;;3.30;;
1537;SDS011;12022;52.266;10.522;2022-08-16T00:59:21;9.40;;;9.30;;
1537;SDS011;12022;52.266;10.522;2022-08-16T01:01:50;6.80;;;6.70;;
1537;SDS011;12022;52.266;10.522;2022-08-16T01:04:19;4.63;;;4.53;;
1537;SDS011;12022;52.266;10.522;2022-08-16T01:06:56;7.10;;;7.00;;
1537;SDS011;12022;52.266;10.522;2022-08-16T01:09:28;8.30;;;8.20;;
1537;SDS011;12022;52.266;10.522;2022-08-16T01:12:03;6.63;;;6.53;;
1537;SDS011;12022;52.266;10.522;2022-08-16T01:14:46;8.67;;;8.57;;
1537;SDS011;12022;52.266;10.522;2022-08-16T01:17:18;6.00;;;5.90;;
1537;SDS011;12022;52.266;10.522;2022-08-16T01:19:51;7.03;;;6.93;;
1537;SDS011;12022;52.266;10.522;2022-08-16T01:25:13;5.33;;;5.23;;
1537;SDS011;12022;52.266;10.522;2022-08-16T01:27:48;4.70;;;4.70;;
1537;SDS011;12022;52.266;10.522;2022-08-16T01:30:20;4.17;;;4.17;;
1537;SDS011;12022;52.266;10.522;2022-08-16T01:32:52;5.60;;;5.50;;
1537;SDS011;12022;52.266;10.522;2022-08-16T01:38:38;4.67;;;4.67;;
1537;SDS011;12022;52.266;10.522;2022-08-16T01:41:20;3.87;;;3.87;;
1537;SDS011;12022;52.266;10.522;2022-08-16T01:43:49;5.70;;;5.60;;
1537;SDS011;12022;52.266;10.522;2022-08-16T01:49:19;6.70;;;6.60;;
1537;SDS011;12022;52.266;10.522;2022-08-16T01:51:55;5.37;;;5.27;;
1537;SDS011;12022;52.266;10.522;2022-08-16T01:54:26;4.40;;;4.40;;
1537;SDS011;12022;52.266;10.522;2022-08-16T01:56:56;4.73;;;4.73;;
1537;SDS011;12022;52.266;10.522;2022-08-16T01:59:25;4.87;;;4.77;;
1537;SDS011;12022;52.266;10.522;2022-08-16T02:01:53;4.43;;;4.43;;
1537;SDS011;12022;52.266;10.522;2022-08-16T02:04:26;4.20;;;4.20;;
1537;SDS011;12022;52.266;10.522;2022-08-16T02:07:14;5.43;;;5.33;;
1537;SDS011;12022;52.266;10.522;2022-08-16T02:09:44;3.30;;;3.30;;
1537;SDS011;12022;52.266;10.522;2022-08-16T02:12:28;3.87;;;3.87;;
1537;SDS011;12022;52.266;10.522;2022-08-16T02:15:16;5.20;;;5.10;;
1537;SDS011;12022;52.266;10.522;2022-08-16T02:17:50;6.13;;;6.03;;
1537;SDS011;12022;52.266;10.522;2022-08-16T02:20:20;3.50;;;3.50;;
1537;SDS011;12022;52.266;10.522;2022-08-16T02:22:53;7.37;;;7.27;;
1537;SDS011;12022;52.266;10.522;2022-08-16T02:25:27;5.77;;;5.67;;
1537;SDS011;12022;52.266;10.522;2022-08-16T02:28:14;4.30;;;4.30;;
1537;SDS011;12022;52.266;10.522;2022-08-16T02:30:44;3.10;;;3.10;;
1537;SDS011;12022;52.266;10.522;2022-08-16T02:33:17;3.93;;;3.93;;
1537;SDS011;12022;52.266;10.522;2022-08-16T02:36:08;4.07;;;4.07;;
1537;SDS011;12022;52.266;10.522;2022-08-16T02:38:57;4.20;;;4.20;;
1537;SDS011;12022;52.266;10.522;2022-08-16T02:41:24;4.10;;;4.10;;
1537;SDS011;12022;52.266;10.522;2022-08-16T02:43:51;4.97;;;4.87;;
1537;SDS011;12022;52.266;10.522;2022-08-16T02:46:19;4.07;;;4.07;;
1537;SDS011;12022;52.266;10.522;2022-08-16T02:48:58;7.23;;;7.13;;
1537;SDS011;12022;52.266;10.522;2022-08-16T02:51:27;4.60;;;4.53;;
1537;SDS011;12022;52.266;10.522;2022-08-16T02:53:56;3.53;;;3.53;;
1537;SDS011;12022;52.266;10.522;2022-08-16T02:56:24;4.03;;;4.03;;
1537;SDS011;12022;52.266;10.522;2022-08-16T02:58:58;4.77;;;4.70;;
1537;SDS011;12022;52.266;10.522;2022-08-16T03:01:27;4.40;;;4.40;;
1537;SDS011;12022;52.266;10.522;2022-08-16T03:04:02;3.83;;;3.83;;
1537;SDS011;12022;52.266;10.522;2022-08-16T03:06:51;6.07;;;5.97;;
1537;SDS011;12022;52.266;10.522;2022-08-16T03:09:22;7.20;;;7.10;;
1537;SDS011;12022;52.266;10.522;2022-08-16T03:11:55;5.90;;;5.80;;
1537;SDS011;12022;52.266;10.522;2022-08-16T03:14:23;3.60;;;3.60;;
1537;SDS011;12022;52.266;10.522;2022-08-16T03:16:50;4.30;;;4.30;;
1537;SDS011;12022;52.266;10.522;2022-08-16T03:19:25;5.30;;;5.20;;
1537;SDS011;12022;52.266;10.522;2022-08-16T03:22:14;3.30;;;3.30;;
1537;SDS011;12022;52.266;10.522;2022-08-16T03:24:53;2.60;;;2.60;;
1537;SDS011;12022;52.266;10.522;2022-08-16T03:27:23;4.50;;;4.40;;
1537;SDS011;12022;52.266;10.522;2022-08-16T03:29:56;4.50;;;4.50;;
1537;SDS011;12022;52.266;10.522;2022-08-16T03:32:25;6.17;;;6.07;;
1537;SDS011;12022;52.266;10.522;2022-08-16T03:34:52;3.90;;;3.90;;
1537;SDS011;12022;52.266;10.522;2022-08-16T03:37:19;3.07;;;3.07;;
1537;SDS011;12022;52.266;10.522;2022-08-16T03:39:46;3.00;;;3.00;;
1537;SDS011;12022;52.266;10.522;2022-08-16T03:42:21;3.97;;;3.97;;
1537;SDS011;12022;52.266;10.522;2022-08-16T03:44:48;3.60;;;3.60;;
1537;SDS011;12022;52.266;10.522;2022-08-16T03:47:15;3.93;;;3.93;;
1537;SDS011;12022;52.266;10.522;2022-08-16T03:49:45;7.17;;;7.07;;
1537;SDS011;12022;52.266;10.522;2022-08-16T03:52:18;5.93;;;5.83;;
1537;SDS011;12022;52.266;10.522;2022-08-16T03:54:49;5.27;;;5.17;;
1537;SDS011;12022;52.266;10.522;2022-08-16T03:57:23;6.00;;;5.90;;
1537;SDS011;12022;52.266;10.522;2022-08-16T04:00:05;3.70;;;3.70;;
1537;SDS011;12022;52.266;10.522;2022-08-16T04:03:00;3.93;;;3.93;;
1537;SDS011;12022;52.266;10.522;2022-08-16T04:05:33;6.33;;;6.23;;
1537;SDS011;12022;52.266;10.522;2022-08-16T04:08:03;5.10;;;5.00;;
1537;SDS011;12022;52.266;10.522;2022-08-16T04:10:50;3.47;;;3.47;;
1537;SDS011;12022;52.266;10.522;2022-08-16T04:13:18;4.43;;;4.43;;
1537;SDS011;12022;52.266;10.522;2022-08-16T04:16:05;4.47;;;4.47;;
1537;SDS011;12022;52.266;10.522;2022-08-16T04:18:34;3.70;;;3.70;;
1537;SDS011;12022;52.266;10.522;2022-08-16T04:21:04;3.53;;;3.53;;
1537;SDS011;12022;52.266;10.522;2022-08-16T04:23:31;3.73;;;3.73;;
1537;SDS011;12022;52.266;10.522;2022-08-16T04:25:58;5.73;;;5.63;;
1537;SDS011;12022;52.266;10.522;2022-08-16T04:28:27;6.63;;;6.53;;
1537;SDS011;12022;52.266;10.522;2022-08-16T04:31:15;5.13;;;5.03;;
1537;SDS011;12022;52.266;10.522;2022-08-16T04:33:42;3.10;;;3.10;;
1537;SDS011;12022;52.266;10.522;2022-08-16T04:36:16;5.37;;;5.27;;
1537;SDS011;12022;52.266;10.522;2022-08-16T04:38:45;7.00;;;6.90;;
1537;SDS011;12022;52.266;10.522;2022-08-16T04:41:15;5.17;;;5.07;;
1537;SDS011;12022;52.266;10.522;2022-08-16T04:43:43;5.33;;;5.23;;
1537;SDS011;12022;52.266;10.522;2022-08-16T04:46:11;7.67;;;7.57;;
1537;SDS011;12022;52.266;10.522;2022-08-16T04:49:00;6.27;;;6.17;;
1537;SDS011;12022;52.266;10.522;2022-08-16T04:51:27;4.17;;;4.17;;
1537;SDS011;12022;52.266;10.522;2022-08-16T04:54:01;7.97;;;7.87;;
1537;SDS011;12022;52.266;10.522;2022-08-16T04:56:29;6.97;;;6.87;;
1537;SDS011;12022;52.266;10.522;2022-08-16T04:58:56;6.03;;;5.93;;
1537;SDS011;12022;52.266;10.522;2022-08-16T05:01:23;5.23;;;5.13;;
1537;SDS011;12022;52.266;10.522;2022-08-16T05:04:11;7.50;;;7.40;;
1537;SDS011;12022;52.266;10.522;2022-08-16T05:06:45;6.93;;;6.83;;
1537;SDS011;12022;52.266;10.522;2022-08-16T05:09:12;7.63;;;7.53;;
1537;SDS011;12022;52.266;10.522;2022-08-16T05:11:41;10.13;;;9.93;;
1537;SDS011;12022;52.266;10.522;2022-08-16T05:14:08;7.10;;;7.00;;
1537;SDS011;12022;52.266;10.522;2022-08-16T05:16:45;6.63;;;6.53;;
1537;SDS011;12022;52.266;10.522;2022-08-16T05:19:17;7.83;;;7.73;;
1537;SDS011;12022;52.266;10.522;2022-08-16T05:21:44;11.20;;;11.00;;
1537;SDS011;12022;52.266;10.522;2022-08-16T05:24:11;11.23;;;11.03;;
1537;SDS011;12022;52.266;10.522;2022-08-16T05:26:38;12.60;;;12.40;;
1537;SDS011;12022;52.266;10.522;2022-08-16T05:29:08;8.90;;;8.80;;
1537;SDS011;12022;52.266;10.522;2022-08-16T05:31:40;8.37;;;8.27;;
1537;SDS011;12022;52.266;10.522;2022-08-16T05:34:13;11.83;;;11.63;;
1537;SDS011;12022;52.266;10.522;2022-08-16T05:36:46;17.20;;;16.87;;
1537;SDS011;12022;52.266;10.522;2022-08-16T05:39:16;15.77;;;15.47;;
1537;SDS011;12022;52.266;10.522;2022-08-16T05:41:46;13.83;;;13.53;;
1537;SDS011;12022;52.266;10.522;2022-08-16T05:44:17;15.30;;;15.00;;
1537;SDS011;12022;52.266;10.522;2022-08-16T05:46:54;10.60;;;10.40;;
1537;SDS011;12022;52.266;10.522;2022-08-16T05:49:26;15.00;;;14.70;;
1537;SDS011;12022;52.266;10.522;2022-08-16T05:52:05;17.47;;;17.10;;
1537;SDS011;12022;52.266;10.522;2022-08-16T05:54:37;25.07;;;24.50;;
1537;SDS011;12022;52.266;10.522;2022-08-16T05:57:13;12.07;;;11.87;;
1537;SDS011;12022;52.266;10.522;2022-08-16T05:59:42;11.60;;;11.40;;
1537;SDS011;12022;52.266;10.522;2022-08-16T06:02:11;14.03;;;13.73;;
1537;SDS011;12022;52.266;10.522;2022-08-16T06:04:39;20.70;;;19.90;;
1537;SDS011;12022;52.266;10.522;2022-08-16T06:07:11;17.87;;;17.47;;
1537;SDS011;12022;52.266;10.522;2022-08-16T06:09:52;16.63;;;16.33;;
1537;SDS011;12022;52.266;10.522;2022-08-16T06:12:25;13.80;;;13.50;;
1537;SDS011;12022;52.266;10.522;2022-08-16T06:15:05;15.77;;;15.47;;
1537;SDS011;12022;52.266;10.522;2022-08-16T06:17:35;19.63;;;19.23;;
1537;SDS011;12022;52.266;10.522;2022-08-16T06:20:11;24.30;;;23.73;;
1537;SDS011;12022;52.266;10.522;2022-08-16T06:22:44;22.10;;;21.60;;
1537;SDS011;12022;52.266;10.522;2022-08-16T06:25:29;26.00;;;25.40;;
1537;SDS011;12022;52.266;10.522;2022-08-16T06:28:05;20.63;;;20.20;;
1537;SDS011;12022;52.266;10.522;2022-08-16T06:30:34;21.67;;;21.17;;
1537;SDS011;12022;52.266;10.522;2022-08-16T06:33:10;23.50;;;23.00;;
1537;SDS011;12022;52.266;10.522;2022-08-16T06:35:45;23.73;;;23.20;;
1537;SDS011;12022;52.266;10.522;2022-08-16T06:38:12;25.20;;;24.60;;
1537;SDS011;12022;52.266;10.522;2022-08-16T06:40:59;28.43;;;27.73;;
1537;SDS011;12022;52.266;10.522;2022-08-16T06:43:31;30.00;;;29.30;;
1537;SDS011;12022;52.266;10.522;2022-08-16T06:46:00;26.37;;;25.77;;
1537;SDS011;12022;52.266;10.522;2022-08-16T06:48:30;27.30;;;26.63;;
1537;SDS011;12022;52.266;10.522;2022-08-16T06:51:00;43.93;;;42.83;;
1537;SDS011;12022;52.266;10.522;2022-08-16T06:53:31;29.20;;;28.50;;
1537;SDS011;12022;52.266;10.522;2022-08-16T06:56:01;26.90;;;26.30;;
1537;SDS011;12022;52.266;10.522;2022-08-16T06:58:44;21.90;;;21.40;;
1537;SDS011;12022;52.266;10.522;2022-08-16T07:01:11;20.67;;;20.27;;
1537;SDS011;12022;52.266;10.522;2022-08-16T07:03:41;28.50;;;27.80;;
1537;SDS011;12022;52.266;10.522;2022-08-16T07:06:22;53.87;;;52.50;;
1537;SDS011;12022;52.266;10.522;2022-08-16T07:08:52;37.23;;;36.33;;
1537;SDS011;12022;52.266;10.522;2022-08-16T07:11:19;24.87;;;24.37;;
1537;SDS011;12022;52.266;10.522;2022-08-16T07:14:06;18.97;;;18.57;;
1537;SDS011;12022;52.266;10.522;2022-08-16T07:16:52;15.57;;;15.27;;
1537;SDS011;12022;52.266;10.522;2022-08-16T07:19:25;24.83;;;24.27;;
1537;SDS011;12022;52.266;10.522;2022-08-16T07:22:16;19.20;;;18.80;;
1537;SDS011;12022;52.266;10.522;2022-08-16T07:25:04;18.90;;;18.50;;
1537;SDS011;12022;52.266;10.522;2022-08-16T07:27:32;18.73;;;18.33;;
1537;SDS011;12022;52.266;10.522;2022-08-16T07:30:07;27.07;;;26.47;;
1537;SDS011;12022;52.266;10.522;2022-08-16T07:32:57;29.00;;;28.30;;
1537;SDS011;12022;52.266;10.522;2022-08-16T07:35:25;22.63;;;22.13;;
1537;SDS011;12022;52.266;10.522;2022-08-16T07:37:52;17.30;;;16.97;;
1537;SDS011;12022;52.266;10.522;2022-08-16T07:40:19;27.30;;;26.70;;
1537;SDS011;12022;52.266;10.522;2022-08-16T07:43:07;24.27;;;23.77;;
1537;SDS011;12022;52.266;10.522;2022-08-16T07:45:34;25.90;;;25.30;;
1537;SDS011;12022;52.266;10.522;2022-08-16T07:48:02;19.63;;;19.23;;
1537;SDS011;12022;52.266;10.522;2022-08-16T07:50:38;21.30;;;20.80;;
1537;SDS011;12022;52.266;10.522;2022-08-16T07:53:24;31.17;;;30.47;;
1537;SDS011;12022;52.266;10.522;2022-08-16T07:55:54;14.97;;;14.67;;
1537;SDS011;12022;52.266;10.522;2022-08-16T07:58:22;18.63;;;18.23;;
1537;SDS011;12022;52.266;10.522;2022-08-16T08:01:01;18.00;;;17.60;;
1537;SDS011;12022;52.266;10.522;2022-08-16T08:03:36;10.20;;;10.00;;
1537;SDS011;12022;52.266;10.522;2022-08-16T08:06:09;12.80;;;12.60;;
1537;SDS011;12022;52.266;10.522;2022-08-16T08:08:37;12.10;;;11.90;;
1537;SDS011;12022;52.266;10.522;2022-08-16T08:11:19;8.50;;;8.40;;
1537;SDS011;12022;52.266;10.522;2022-08-16T08:13:50;8.20;;;8.10;;
1537;SDS011;12022;52.266;10.522;2022-08-16T08:16:19;11.50;;;11.30;;
1537;SDS011;12022;52.266;10.522;2022-08-16T08:18:56;8.20;;;8.10;;
1537;SDS011;12022;52.266;10.522;2022-08-16T08:21:26;12.63;;;12.43;;
1537;SDS011;12022;52.266;10.522;2022-08-16T08:24:13;7.50;;;7.40;;
1537;SDS011;12022;52.266;10.522;2022-08-16T08:26:40;8.07;;;7.97;;
1537;SDS011;12022;52.266;10.522;2022-08-16T08:29:08;7.63;;;7.53;;
1537;SDS011;12022;52.266;10.522;2022-08-16T08:31:37;7.70;;;7.60;;
1537;SDS011;12022;52.266;10.522;2022-08-16T08:34:07;8.60;;;8.50;;
1537;SDS011;12022;52.266;10.522;2022-08-16T08:36:38;5.60;;;5.50;;
1537;SDS011;12022;52.266;10.522;2022-08-16T08:39:05;3.60;;;3.60;;
1537;SDS011;12022;52.266;10.522;2022-08-16T08:41:39;5.47;;;5.37;;
1537;SDS011;12022;52.266;10.522;2022-08-16T08:44:08;5.67;;;5.57;;
1537;SDS011;12022;52.266;10.522;2022-08-16T08:46:57;8.07;;;7.97;;
1537;SDS011;12022;52.266;10.522;2022-08-16T08:49:28;6.10;;;6.00;;
1537;SDS011;12022;52.266;10.522;2022-08-16T08:52:16;6.23;;;6.13;;
1537;SDS011;12022;52.266;10.522;2022-08-16T08:55:05;8.30;;;8.20;;
1537;SDS011;12022;52.266;10.522;2022-08-16T08:57:37;8.33;;;8.23;;
1537;SDS011;12022;52.266;10.522;2022-08-16T09:00:06;8.40;;;8.30;;
1537;SDS011;12022;52.266;10.522;2022-08-16T09:02:40;6.90;;;6.80;;
1537;SDS011;12022;52.266;10.522;2022-08-16T09:05:11;11.53;;;11.33;;
1537;SDS011;12022;52.266;10.522;2022-08-16T09:07:41;6.07;;;5.97;;
1537;SDS011;12022;52.266;10.522;2022-08-16T09:10:29;5.63;;;5.53;;
1537;SDS011;12022;52.266;10.522;2022-08-16T09:12:59;4.07;;;4.07;;
1537;SDS011;12022;52.266;10.522;2022-08-16T09:15:26;9.80;;;9.63;;
1537;SDS011;12022;52.266;10.522;2022-08-16T09:17:59;7.47;;;7.37;;
1537;SDS011;12022;52.266;10.522;2022-08-16T09:20:50;7.90;;;7.80;;
1537;SDS011;12022;52.266;10.522;2022-08-16T09:23:26;6.20;;;6.10;;
1537;SDS011;12022;52.266;10.522;2022-08-16T09:25:54;7.50;;;7.40;;
1537;SDS011;12022;52.266;10.522;2022-08-16T09:28:21;5.73;;;5.63;;
1537;SDS011;12022;52.266;10.522;2022-08-16T09:31:10;6.27;;;6.17;;
1537;SDS011;12022;52.266;10.522;2022-08-16T09:33:40;6.10;;;6.00;;
1537;SDS011;12022;52.266;10.522;2022-08-16T09:36:27;4.93;;;4.83;;
1537;SDS011;12022;52.266;10.522;2022-08-16T09:38:58;5.43;;;5.33;;
1537;SDS011;12022;52.266;10.522;2022-08-16T09:41:27;7.70;;;7.60;;
1537;SDS011;12022;52.266;10.522;2022-08-16T09:43:56;5.90;;;5.80;;
1537;SDS011;12022;52.266;10.522;2022-08-16T09:46:28;7.47;;;7.37;;
1537;SDS011;12022;52.266;10.522;2022-08-16T09:49:13;7.90;;;7.80;;
1537;SDS011;12022;52.266;10.522;2022-08-16T09:51:41;6.37;;;6.27;;
1537;SDS011;12022;52.266;10.522;2022-08-16T09:54:08;7.27;;;7.17;;
1537;SDS011;12022;52.266;10.522;2022-08-16T09:56:46;7.53;;;7.43;;
1537;SDS011;12022;52.266;10.522;2022-08-16T09:59:18;9.83;;;9.63;;
1537;SDS011;12022;52.266;10.522;2022-08-16T10:01:48;7.27;;;7.17;;
1537;SDS011;12022;52.266;10.522;2022-08-16T10:04:17;7.57;;;7.47;;
1537;SDS011;12022;52.266;10.522;2022-08-16T10:07:00;8.93;;;8.83;;
1537;SDS011;12022;52.266;10.522;2022-08-16T10:09:41;8.77;;;8.67;;
1537;SDS011;12022;52.266;10.522;2022-08-16T10:12:19;17.20;;;16.87;;
1537;SDS011;12022;52.266;10.522;2022-08-16T10:15:08;7.13;;;7.03;;
1537;SDS011;12022;52.266;10.522;2022-08-16T10:17:41;9.10;;;9.00;;
1537;SDS011;12022;52.266;10.522;2022-08-16T10:20:27;4.80;;;4.70;;
1537;SDS011;12022;52.266;10.522;2022-08-16T10:22:56;7.57;;;7.47;;
1537;SDS011;12022;52.266;10.522;2022-08-16T10:25:32;12.70;;;12.50;;
1537;SDS011;12022;52.266;10.522;2022-08-16T10:28:25;8.97;;;8.87;;
1537;SDS011;12022;52.266;10.522;2022-08-16T10:30:57;6.33;;;6.23;;
1537;SDS011;12022;52.266;10.522;2022-08-16T10:33:28;7.93;;;7.83;;
1537;SDS011;12022;52.266;10.522;2022-08-16T10:35:59;6.80;;;6.70;;
1537;SDS011;12022;52.266;10.522;2022-08-16T10:38:30;6.20;;;6.10;;
1537;SDS011;12022;52.266;10.522;2022-08-16T10:41:02;4.20;;;4.20;;
1537;SDS011;12022;52.266;10.522;2022-08-16T10:43:33;5.70;;;5.60;;
1537;SDS011;12022;52.266;10.522;2022-08-16T10:46:02;7.10;;;7.00;;
1537;SDS011;12022;52.266;10.522;2022-08-16T10:48:51;6.10;;;6.00;;
1537;SDS011;12022;52.266;10.522;2022-08-16T10:51:18;5.53;;;5.43;;
1537;SDS011;12022;52.266;10.522;2022-08-16T10:53:58;16.47;;;16.17;;
1537;SDS011;12022;52.266;10.522;2022-08-16T10:56:25;10.27;;;10.07;;
1537;SDS011;12022;52.266;10.522;2022-08-16T10:59:12;8.00;;;7.90;;
1537;SDS011;12022;52.266;10.522;2022-08-16T11:01:59;6.20;;;6.10;;
1537;SDS011;12022;52.266;10.522;2022-08-16T11:04:47;10.70;;;10.50;;
1537;SDS011;12022;52.266;10.522;2022-08-16T11:07:31;7.67;;;7.57;;
1537;SDS011;12022;52.266;10.522;2022-08-16T11:10:23;6.67;;;6.57;;
1537;SDS011;12022;52.266;10.522;2022-08-16T11:13:22;8.30;;;8.20;;
1537;SDS011;12022;52.266;10.522;2022-08-16T11:16:11;7.20;;;7.10;;
1537;SDS011;12022;52.266;10.522;2022-08-16T11:18:58;12.10;;;11.90;;
1537;SDS011;12022;52.266;10.522;2022-08-16T11:21:36;7.03;;;6.93;;
1537;SDS011;12022;52.266;10.522;2022-08-16T11:24:23;12.80;;;12.60;;
1537;SDS011;12022;52.266;10.522;2022-08-16T11:27:09;17.77;;;17.37;;
1537;SDS011;12022;52.266;10.522;2022-08-16T11:29:47;10.23;;;10.03;;
1537;SDS011;12022;52.266;10.522;2022-08-16T11:32:17;11.33;;;11.13;;
1537;SDS011;12022;52.266;10.522;2022-08-16T11:34:53;11.67;;;11.47;;
1537;SDS011;12022;52.266;10.522;2022-08-16T11:37:39;8.93;;;8.83;;
1537;SDS011;12022;52.266;10.522;2022-08-16T11:40:28;7.03;;;6.93;;
1537;SDS011;12022;52.266;10.522;2022-08-16T11:42:59;6.33;;;6.23;;
1537;SDS011;12022;52.266;10.522;2022-08-16T11:45:30;11.63;;;11.43;;
1537;SDS011;12022;52.266;10.522;2022-08-16T11:48:03;6.37;;;6.27;;
1537;SDS011;12022;52.266;10.522;2022-08-16T11:50:31;6.70;;;6.60;;
1537;SDS011;12022;52.266;10.522;2022-08-16T11:52:59;6.50;;;6.40;;
1537;SDS011;12022;52.266;10.522;2022-08-16T11:55:29;9.77;;;9.57;;
1537;SDS011;12022;52.266;10.522;2022-08-16T11:57:57;6.67;;;6.57;;
1537;SDS011;12022;52.266;10.522;2022-08-16T12:00:26;8.00;;;7.90;;
1537;SDS011;12022;52.266;10.522;2022-08-16T12:03:14;5.90;;;5.80;;
1537;SDS011;12022;52.266;10.522;2022-08-16T12:05:42;6.80;;;6.70;;
1537;SDS011;12022;52.266;10.522;2022-08-16T12:08:10;6.47;;;6.37;;
1537;SDS011;12022;52.266;10.522;2022-08-16T12:10:38;6.60;;;6.50;;
1537;SDS011;12022;52.266;10.522;2022-08-16T12:13:09;7.57;;;7.47;;
1537;SDS011;12022;52.266;10.522;2022-08-16T12:15:37;8.90;;;8.77;;
1537;SDS011;12022;52.266;10.522;2022-08-16T12:18:06;4.07;;;4.07;;
1537;SDS011;12022;52.266;10.522;2022-08-16T12:20:36;3.80;;;3.80;;
1537;SDS011;12022;52.266;10.522;2022-08-16T12:23:06;5.13;;;5.03;;
1537;SDS011;12022;52.266;10.522;2022-08-16T12:25:33;5.77;;;5.67;;
1537;SDS011;12022;52.266;10.522;2022-08-16T12:28:03;6.50;;;6.40;;
1537;SDS011;12022;52.266;10.522;2022-08-16T12:30:33;5.27;;;5.17;;
1537;SDS011;12022;52.266;10.522;2022-08-16T12:33:05;5.50;;;5.40;;
1537;SDS011;12022;52.266;10.522;2022-08-16T12:35:34;3.30;;;3.30;;
1537;SDS011;12022;52.266;10.522;2022-08-16T12:38:03;5.37;;;5.27;;
1537;SDS011;12022;52.266;10.522;2022-08-16T12:40:52;4.53;;;4.43;;
1537;SDS011;12022;52.266;10.522;2022-08-16T12:43:22;4.70;;;4.60;;
1537;SDS011;12022;52.266;10.522;2022-08-16T12:45:53;11.33;;;11.13;;
1537;SDS011;12022;52.266;10.522;2022-08-16T12:48:25;5.27;;;5.17;;
1537;SDS011;12022;52.266;10.522;2022-08-16T12:51:15;4.30;;;4.20;;
1537;SDS011;12022;52.266;10.522;2022-08-16T12:53:50;2.80;;;2.80;;
1537;SDS011;12022;52.266;10.522;2022-08-16T12:56:20;6.90;;;6.80;;
1537;SDS011;12022;52.266;10.522;2022-08-16T12:58:51;5.03;;;4.93;;
1537;SDS011;12022;52.266;10.522;2022-08-16T13:01:23;5.13;;;5.03;;
1537;SDS011;12022;52.266;10.522;2022-08-16T13:03:55;4.30;;;4.20;;
1537;SDS011;12022;52.266;10.522;2022-08-16T13:06:43;3.60;;;3.60;;
1537;SDS011;12022;52.266;10.522;2022-08-16T13:09:10;2.73;;;2.73;;
1537;SDS011;12022;52.266;10.522;2022-08-16T13:12:00;3.50;;;3.50;;
1537;SDS011;12022;52.266;10.522;2022-08-16T13:14:35;4.13;;;4.13;;
1537;SDS011;12022;52.266;10.522;2022-08-16T13:17:08;4.20;;;4.20;;
1537;SDS011;12022;52.266;10.522;2022-08-16T13:19:44;3.83;;;3.83;;
1537;SDS011;12022;52.266;10.522;2022-08-16T13:22:33;10.07;;;9.87;;
1537;SDS011;12022;52.266;10.522;2022-08-16T13:25:00;7.00;;;6.90;;
1537;SDS011;12022;52.266;10.522;2022-08-16T13:27:31;7.40;;;7.30;;
1537;SDS011;12022;52.266;10.522;2022-08-16T13:30:19;4.20;;;4.20;;
1537;SDS011;12022;52.266;10.522;2022-08-16T13:33:03;2.60;;;2.60;;
1537;SDS011;12022;52.266;10.522;2022-08-16T13:35:38;3.33;;;3.33;;
1537;SDS011;12022;52.266;10.522;2022-08-16T13:38:12;3.50;;;3.50;;
1537;SDS011;12022;52.266;10.522;2022-08-16T13:40:51;5.20;;;5.10;;
1537;SDS011;12022;52.266;10.522;2022-08-16T13:43:21;3.43;;;3.43;;
1537;SDS011;12022;52.266;10.522;2022-08-16T13:45:53;6.60;;;6.50;;
1537;SDS011;12022;52.266;10.522;2022-08-16T13:48:24;4.87;;;4.77;;
1537;SDS011;12022;52.266;10.522;2022-08-16T13:51:08;3.27;;;3.27;;
1537;SDS011;12022;52.266;10.522;2022-08-16T13:53:41;4.97;;;4.87;;
1537;SDS011;12022;52.266;10.522;2022-08-16T13:56:09;4.90;;;4.80;;
1537;SDS011;12022;52.266;10.522;2022-08-16T13:58:47;7.57;;;7.47;;
1537;SDS011;12022;52.266;10.522;2022-08-16T14:01:20;5.50;;;5.40;;
1537;SDS011;12022;52.266;10.522;2022-08-16T14:03:47;4.97;;;4.87;;
1537;SDS011;12022;52.266;10.522;2022-08-16T14:06:20;3.23;;;3.23;;
1537;SDS011;12022;52.266;10.522;2022-08-16T14:08:47;2.57;;;2.57;;
1537;SDS011;12022;52.266;10.522;2022-08-16T14:11:31;3.50;;;3.50;;
1537;SDS011;12022;52.266;10.522;2022-08-16T14:13:59;3.10;;;3.10;;
1537;SDS011;12022;52.266;10.522;2022-08-16T14:16:26;3.70;;;3.70;;
1537;SDS011;12022;52.266;10.522;2022-08-16T14:18:59;4.70;;;4.60;;
1537;SDS011;12022;52.266;10.522;2022-08-16T14:21:27;2.90;;;2.90;;
1537;SDS011;12022;52.266;10.522;2022-08-16T14:24:02;3.57;;;3.57;;
1537;SDS011;12022;52.266;10.522;2022-08-16T14:26:48;5.93;;;5.83;;
1537;SDS011;12022;52.266;10.522;2022-08-16T14:29:15;3.90;;;3.90;;
1537;SDS011;12022;52.266;10.522;2022-08-16T14:31:46;3.93;;;3.93;;
1537;SDS011;12022;52.266;10.522;2022-08-16T14:34:19;4.70;;;4.63;;
1537;SDS011;12022;52.266;10.522;2022-08-16T14:36:51;3.83;;;3.83;;
1537;SDS011;12022;52.266;10.522;2022-08-16T14:39:18;7.10;;;7.00;;
1537;SDS011;12022;52.266;10.522;2022-08-16T14:41:47;5.97;;;5.87;;
1537;SDS011;12022;52.266;10.522;2022-08-16T14:44:18;5.10;;;5.00;;
1537;SDS011;12022;52.266;10.522;2022-08-16T14:46:45;4.60;;;4.50;;
1537;SDS011;12022;52.266;10.522;2022-08-16T14:49:12;3.23;;;3.23;;
1537;SDS011;12022;52.266;10.522;2022-08-16T14:51:39;7.70;;;7.60;;
1537;SDS011;12022;52.266;10.522;2022-08-16T14:54:11;4.13;;;4.03;;
1537;SDS011;12022;52.266;10.522;2022-08-16T14:56:40;6.60;;;6.50;;
1537;SDS011;12022;52.266;10.522;2022-08-16T14:59:20;5.23;;;5.13;;
1537;SDS011;12022;52.266;10.522;2022-08-16T15:01:49;4.97;;;4.87;;
1537;SDS011;12022;52.266;10.522;2022-08-16T15:04:26;5.10;;;5.00;;
1537;SDS011;12022;52.266;10.522;2022-08-16T15:07:06;5.37;;;5.27;;
1537;SDS011;12022;52.266;10.522;2022-08-16T15:09:42;3.83;;;3.83;;
1537;SDS011;12022;52.266;10.522;2022-08-16T15:12:27;3.93;;;3.93;;
1537;SDS011;12022;52.266;10.522;2022-08-16T15:14:58;3.23;;;3.23;;
1537;SDS011;12022;52.266;10.522;2022-08-16T15:17:26;5.67;;;5.57;;
1537;SDS011;12022;52.266;10.522;2022-08-16T15:20:02;3.33;;;3.33;;
1537;SDS011;12022;52.266;10.522;2022-08-16T15:22:36;4.23;;;4.23;;
1537;SDS011;12022;52.266;10.522;2022-08-16T15:25:22;3.30;;;3.30;;
1537;SDS011;12022;52.266;10.522;2022-08-16T15:27:56;5.40;;;5.30;;
1537;SDS011;12022;52.266;10.522;2022-08-16T15:30:27;4.93;;;4.83;;